sensor_id;sensor_type;location;lat;lon;timestamp;P1;durP1;ratioP1;P2;durP2;ratioP2
21038;SDS011;10678;51.002;4.786;2023-04-24T00:01:40;25.10;;;9.18;;
21038;SDS011;10678;51.002;4.786;2023-04-24T00:04:07;24.50;;;9.40;;
21038;SDS011;10678;51.002;4.786;2023-04-24T00:06:35;13.30;;;9.02;;
21038;SDS011;10678;51.002;4.786;2023-04-24T00:09:09;16.45;;;9.63;;
21038;SDS011;10678;51.002;4.786;2023-04-24T00:11:35;24.50;;;10.30;;
21038;SDS011;10678;51.002;4.786;2023-04-24T00:14:01;20.80;;;10.07;;
21038;SDS011;10678;51.002;4.786;2023-04-24T00:16:27;19.63;;;10.35;;
21038;SDS011;10678;51.002;4.786;2023-04-24T00:18:53;21.92;;;10.32;;
21038;SDS011;10678;51.002;4.786;2023-04-24T00:21:19;25.75;;;10.90;;
21038;SDS011;10678;51.002;4.786;2023-04-24T00:23:45;20.55;;;10.98;;
21038;SDS011;10678;51.002;4.786;2023-04-24T00:26:11;21.83;;;11.05;;
21038;SDS011;10678;51.002;4.786;2023-04-24T00:28:36;23.30;;;11.32;;
21038;SDS011;10678;51.002;4.786;2023-04-24T00:31:02;23.80;;;12.52;;
21038;SDS011;10678;51.002;4.786;2023-04-24T00:33:28;25.17;;;11.82;;
21038;SDS011;10678;51.002;4.786;2023-04-24T00:35:53;21.00;;;10.88;;
21038;SDS011;10678;51.002;4.786;2023-04-24T00:38:19;28.13;;;12.40;;
21038;SDS011;10678;51.002;4.786;2023-04-24T00:40:45;23.42;;;11.95;;
21038;SDS011;10678;51.002;4.786;2023-04-24T00:43:10;21.95;;;11.30;;
21038;SDS011;10678;51.002;4.786;2023-04-24T00:45:37;23.33;;;11.48;;
21038;SDS011;10678;51.002;4.786;2023-04-24T00:48:02;25.10;;;12.48;;
21038;SDS011;10678;51.002;4.786;2023-04-24T00:50:29;20.00;;;11.25;;
21038;SDS011;10678;51.002;4.786;2023-04-24T00:52:55;21.73;;;11.13;;
21038;SDS011;10678;51.002;4.786;2023-04-24T00:55:21;23.10;;;11.20;;
21038;SDS011;10678;51.002;4.786;2023-04-24T00:57:47;19.77;;;10.40;;
21038;SDS011;10678;51.002;4.786;2023-04-24T01:00:14;18.23;;;10.57;;
21038;SDS011;10678;51.002;4.786;2023-04-24T01:02:43;18.25;;;11.35;;
21038;SDS011;10678;51.002;4.786;2023-04-24T01:05:10;21.40;;;10.88;;
21038;SDS011;10678;51.002;4.786;2023-04-24T01:07:37;22.88;;;10.30;;
21038;SDS011;10678;51.002;4.786;2023-04-24T01:10:05;19.70;;;10.88;;
21038;SDS011;10678;51.002;4.786;2023-04-24T01:12:32;19.17;;;9.48;;
21038;SDS011;10678;51.002;4.786;2023-04-24T01:14:57;18.85;;;10.25;;
21038;SDS011;10678;51.002;4.786;2023-04-24T01:17:23;21.50;;;11.05;;
21038;SDS011;10678;51.002;4.786;2023-04-24T01:19:49;19.23;;;11.00;;
21038;SDS011;10678;51.002;4.786;2023-04-24T01:22:18;16.38;;;9.45;;
21038;SDS011;10678;51.002;4.786;2023-04-24T01:24:45;21.77;;;11.40;;
21038;SDS011;10678;51.002;4.786;2023-04-24T01:27:11;19.33;;;11.07;;
21038;SDS011;10678;51.002;4.786;2023-04-24T01:29:37;22.45;;;10.65;;
21038;SDS011;10678;51.002;4.786;2023-04-24T01:32:03;20.77;;;10.45;;
21038;SDS011;10678;51.002;4.786;2023-04-24T01:34:30;21.13;;;11.00;;
21038;SDS011;10678;51.002;4.786;2023-04-24T01:36:55;20.70;;;10.00;;
21038;SDS011;10678;51.002;4.786;2023-04-24T01:39:21;21.63;;;10.73;;
21038;SDS011;10678;51.002;4.786;2023-04-24T01:41:53;22.55;;;10.98;;
21038;SDS011;10678;51.002;4.786;2023-04-24T01:44:19;21.85;;;10.07;;
21038;SDS011;10678;51.002;4.786;2023-04-24T01:46:44;21.50;;;10.23;;
21038;SDS011;10678;51.002;4.786;2023-04-24T01:49:10;18.88;;;10.85;;
21038;SDS011;10678;51.002;4.786;2023-04-24T01:51:36;17.42;;;10.43;;
21038;SDS011;10678;51.002;4.786;2023-04-24T01:54:01;18.67;;;10.30;;
21038;SDS011;10678;51.002;4.786;2023-04-24T01:56:30;18.55;;;10.27;;
21038;SDS011;10678;51.002;4.786;2023-04-24T01:59:00;24.20;;;10.02;;
21038;SDS011;10678;51.002;4.786;2023-04-24T02:01:31;18.00;;;10.45;;
21038;SDS011;10678;51.002;4.786;2023-04-24T02:03:59;17.17;;;9.57;;
21038;SDS011;10678;51.002;4.786;2023-04-24T02:06:25;16.10;;;9.88;;
21038;SDS011;10678;51.002;4.786;2023-04-24T02:08:51;17.90;;;9.38;;
21038;SDS011;10678;51.002;4.786;2023-04-24T02:11:17;20.80;;;10.80;;
21038;SDS011;10678;51.002;4.786;2023-04-24T02:13:43;14.32;;;8.20;;
21038;SDS011;10678;51.002;4.786;2023-04-24T02:16:09;17.80;;;9.00;;
21038;SDS011;10678;51.002;4.786;2023-04-24T02:18:35;15.07;;;9.20;;
21038;SDS011;10678;51.002;4.786;2023-04-24T02:21:00;15.80;;;8.40;;
21038;SDS011;10678;51.002;4.786;2023-04-24T02:23:26;19.85;;;8.20;;
21038;SDS011;10678;51.002;4.786;2023-04-24T02:25:52;13.13;;;7.95;;
21038;SDS011;10678;51.002;4.786;2023-04-24T02:28:18;17.00;;;7.38;;
21038;SDS011;10678;51.002;4.786;2023-04-24T02:30:44;16.08;;;7.95;;
21038;SDS011;10678;51.002;4.786;2023-04-24T02:33:10;12.68;;;7.97;;
21038;SDS011;10678;51.002;4.786;2023-04-24T02:35:36;12.07;;;7.18;;
21038;SDS011;10678;51.002;4.786;2023-04-24T02:38:02;13.77;;;7.40;;
21038;SDS011;10678;51.002;4.786;2023-04-24T02:40:28;14.82;;;7.35;;
21038;SDS011;10678;51.002;4.786;2023-04-24T02:42:54;14.25;;;7.45;;
21038;SDS011;10678;51.002;4.786;2023-04-24T02:45:19;11.55;;;6.88;;
21038;SDS011;10678;51.002;4.786;2023-04-24T02:47:45;13.20;;;7.70;;
21038;SDS011;10678;51.002;4.786;2023-04-24T02:50:11;15.52;;;8.02;;
21038;SDS011;10678;51.002;4.786;2023-04-24T02:52:36;15.90;;;8.93;;
21038;SDS011;10678;51.002;4.786;2023-04-24T02:55:02;12.98;;;8.38;;
21038;SDS011;10678;51.002;4.786;2023-04-24T02:57:28;16.05;;;8.38;;
21038;SDS011;10678;51.002;4.786;2023-04-24T02:59:53;21.65;;;9.15;;
21038;SDS011;10678;51.002;4.786;2023-04-24T03:02:19;16.80;;;9.07;;
21038;SDS011;10678;51.002;4.786;2023-04-24T03:04:45;17.25;;;9.73;;
21038;SDS011;10678;51.002;4.786;2023-04-24T03:07:12;19.00;;;9.68;;
21038;SDS011;10678;51.002;4.786;2023-04-24T03:09:39;21.85;;;10.20;;
21038;SDS011;10678;51.002;4.786;2023-04-24T03:12:05;16.83;;;9.27;;
21038;SDS011;10678;51.002;4.786;2023-04-24T03:14:31;17.60;;;10.05;;
21038;SDS011;10678;51.002;4.786;2023-04-24T03:16:57;18.02;;;9.38;;
21038;SDS011;10678;51.002;4.786;2023-04-24T03:19:23;17.90;;;9.55;;
21038;SDS011;10678;51.002;4.786;2023-04-24T03:21:49;16.38;;;9.48;;
21038;SDS011;10678;51.002;4.786;2023-04-24T03:24:15;16.50;;;9.63;;
21038;SDS011;10678;51.002;4.786;2023-04-24T03:26:41;14.73;;;9.32;;
21038;SDS011;10678;51.002;4.786;2023-04-24T03:29:06;17.25;;;10.00;;
21038;SDS011;10678;51.002;4.786;2023-04-24T03:31:32;12.82;;;8.98;;
21038;SDS011;10678;51.002;4.786;2023-04-24T03:33:57;16.27;;;9.02;;
21038;SDS011;10678;51.002;4.786;2023-04-24T03:36:23;16.38;;;10.07;;
21038;SDS011;10678;51.002;4.786;2023-04-24T03:38:49;14.35;;;9.82;;
21038;SDS011;10678;51.002;4.786;2023-04-24T03:41:15;15.90;;;9.73;;
21038;SDS011;10678;51.002;4.786;2023-04-24T03:43:40;19.02;;;10.50;;
21038;SDS011;10678;51.002;4.786;2023-04-24T03:46:06;14.23;;;9.38;;
21038;SDS011;10678;51.002;4.786;2023-04-24T03:48:34;14.95;;;9.65;;
21038;SDS011;10678;51.002;4.786;2023-04-24T03:51:00;19.00;;;10.15;;
21038;SDS011;10678;51.002;4.786;2023-04-24T03:53:25;19.60;;;10.60;;
21038;SDS011;10678;51.002;4.786;2023-04-24T03:55:52;16.50;;;9.15;;
21038;SDS011;10678;51.002;4.786;2023-04-24T03:58:18;16.60;;;9.05;;
21038;SDS011;10678;51.002;4.786;2023-04-24T04:00:43;14.57;;;8.95;;
21038;SDS011;10678;51.002;4.786;2023-04-24T04:03:09;15.80;;;8.40;;
21038;SDS011;10678;51.002;4.786;2023-04-24T04:05:35;12.40;;;7.38;;
21038;SDS011;10678;51.002;4.786;2023-04-24T04:08:00;13.88;;;7.70;;
21038;SDS011;10678;51.002;4.786;2023-04-24T04:10:26;14.25;;;7.35;;
21038;SDS011;10678;51.002;4.786;2023-04-24T04:12:52;15.05;;;8.63;;
21038;SDS011;10678;51.002;4.786;2023-04-24T04:15:17;14.10;;;7.57;;
21038;SDS011;10678;51.002;4.786;2023-04-24T04:17:43;15.25;;;7.78;;
21038;SDS011;10678;51.002;4.786;2023-04-24T04:20:08;13.23;;;7.10;;
21038;SDS011;10678;51.002;4.786;2023-04-24T04:22:36;13.57;;;6.75;;
21038;SDS011;10678;51.002;4.786;2023-04-24T04:25:02;8.57;;;5.70;;
21038;SDS011;10678;51.002;4.786;2023-04-24T04:27:28;12.10;;;6.10;;
21038;SDS011;10678;51.002;4.786;2023-04-24T04:29:56;12.68;;;5.70;;
21038;SDS011;10678;51.002;4.786;2023-04-24T04:32:32;11.50;;;5.47;;
21038;SDS011;10678;51.002;4.786;2023-04-24T04:34:59;11.90;;;5.90;;
21038;SDS011;10678;51.002;4.786;2023-04-24T04:37:28;9.52;;;5.60;;
21038;SDS011;10678;51.002;4.786;2023-04-24T04:39:58;8.77;;;5.72;;
21038;SDS011;10678;51.002;4.786;2023-04-24T04:42:24;9.85;;;5.78;;
21038;SDS011;10678;51.002;4.786;2023-04-24T04:44:51;11.15;;;5.82;;
21038;SDS011;10678;51.002;4.786;2023-04-24T04:47:17;8.77;;;4.95;;
21038;SDS011;10678;51.002;4.786;2023-04-24T04:49:45;9.15;;;4.90;;
21038;SDS011;10678;51.002;4.786;2023-04-24T04:52:10;8.75;;;4.18;;
21038;SDS011;10678;51.002;4.786;2023-04-24T04:54:36;9.48;;;5.22;;
21038;SDS011;10678;51.002;4.786;2023-04-24T04:57:02;7.72;;;4.20;;
21038;SDS011;10678;51.002;4.786;2023-04-24T04:59:28;8.63;;;5.32;;
21038;SDS011;10678;51.002;4.786;2023-04-24T05:01:54;9.10;;;4.47;;
21038;SDS011;10678;51.002;4.786;2023-04-24T05:04:19;10.02;;;4.45;;
21038;SDS011;10678;51.002;4.786;2023-04-24T05:06:45;8.50;;;4.72;;
21038;SDS011;10678;51.002;4.786;2023-04-24T05:09:12;9.95;;;4.88;;
21038;SDS011;10678;51.002;4.786;2023-04-24T05:11:37;9.20;;;4.65;;
21038;SDS011;10678;51.002;4.786;2023-04-24T05:14:03;11.70;;;5.85;;
21038;SDS011;10678;51.002;4.786;2023-04-24T05:16:29;11.07;;;5.80;;
21038;SDS011;10678;51.002;4.786;2023-04-24T05:18:55;14.68;;;6.47;;
21038;SDS011;10678;51.002;4.786;2023-04-24T05:21:21;9.90;;;5.85;;
21038;SDS011;10678;51.002;4.786;2023-04-24T05:23:47;13.20;;;6.68;;
21038;SDS011;10678;51.002;4.786;2023-04-24T05:26:13;12.27;;;6.43;;
21038;SDS011;10678;51.002;4.786;2023-04-24T05:28:39;13.95;;;6.40;;
21038;SDS011;10678;51.002;4.786;2023-04-24T05:31:05;11.23;;;6.32;;
21038;SDS011;10678;51.002;4.786;2023-04-24T05:33:31;14.95;;;8.05;;
21038;SDS011;10678;51.002;4.786;2023-04-24T05:35:57;13.57;;;7.22;;
21038;SDS011;10678;51.002;4.786;2023-04-24T05:38:22;14.13;;;6.68;;
21038;SDS011;10678;51.002;4.786;2023-04-24T05:40:48;12.82;;;6.60;;
21038;SDS011;10678;51.002;4.786;2023-04-24T05:43:14;14.00;;;7.07;;
21038;SDS011;10678;51.002;4.786;2023-04-24T05:45:39;15.23;;;7.93;;
21038;SDS011;10678;51.002;4.786;2023-04-24T05:48:05;17.40;;;7.57;;
21038;SDS011;10678;51.002;4.786;2023-04-24T05:50:31;22.10;;;9.60;;
21038;SDS011;10678;51.002;4.786;2023-04-24T05:52:56;19.83;;;9.90;;
21038;SDS011;10678;51.002;4.786;2023-04-24T05:55:27;16.98;;;9.27;;
21038;SDS011;10678;51.002;4.786;2023-04-24T05:57:53;17.63;;;8.52;;
21038;SDS011;10678;51.002;4.786;2023-04-24T06:00:18;19.80;;;9.30;;
21038;SDS011;10678;51.002;4.786;2023-04-24T06:02:45;19.70;;;9.27;;
21038;SDS011;10678;51.002;4.786;2023-04-24T06:05:11;14.93;;;7.97;;
21038;SDS011;10678;51.002;4.786;2023-04-24T06:07:37;15.35;;;8.38;;
21038;SDS011;10678;51.002;4.786;2023-04-24T06:10:02;15.32;;;8.18;;
21038;SDS011;10678;51.002;4.786;2023-04-24T06:12:28;19.17;;;9.40;;
21038;SDS011;10678;51.002;4.786;2023-04-24T06:14:54;20.70;;;9.45;;
21038;SDS011;10678;51.002;4.786;2023-04-24T06:17:22;19.63;;;9.48;;
21038;SDS011;10678;51.002;4.786;2023-04-24T06:19:48;17.58;;;9.05;;
21038;SDS011;10678;51.002;4.786;2023-04-24T06:22:14;20.77;;;10.32;;
21038;SDS011;10678;51.002;4.786;2023-04-24T06:24:40;19.58;;;10.27;;
21038;SDS011;10678;51.002;4.786;2023-04-24T06:27:06;19.98;;;9.45;;
21038;SDS011;10678;51.002;4.786;2023-04-24T06:29:32;22.65;;;9.73;;
21038;SDS011;10678;51.002;4.786;2023-04-24T06:31:58;17.98;;;9.82;;
21038;SDS011;10678;51.002;4.786;2023-04-24T06:34:24;19.98;;;9.65;;
21038;SDS011;10678;51.002;4.786;2023-04-24T06:36:50;15.73;;;9.30;;
21038;SDS011;10678;51.002;4.786;2023-04-24T06:39:15;18.40;;;9.43;;
21038;SDS011;10678;51.002;4.786;2023-04-24T06:41:41;17.90;;;9.25;;
21038;SDS011;10678;51.002;4.786;2023-04-24T06:44:07;15.73;;;9.05;;
21038;SDS011;10678;51.002;4.786;2023-04-24T06:46:32;16.27;;;9.23;;
21038;SDS011;10678;51.002;4.786;2023-04-24T06:48:58;18.85;;;8.73;;
21038;SDS011;10678;51.002;4.786;2023-04-24T06:51:24;20.77;;;10.05;;
21038;SDS011;10678;51.002;4.786;2023-04-24T06:53:53;15.30;;;8.80;;
21038;SDS011;10678;51.002;4.786;2023-04-24T06:56:20;24.45;;;10.20;;
21038;SDS011;10678;51.002;4.786;2023-04-24T06:58:47;15.93;;;9.90;;
21038;SDS011;10678;51.002;4.786;2023-04-24T07:01:13;18.80;;;10.00;;
21038;SDS011;10678;51.002;4.786;2023-04-24T07:03:38;17.60;;;10.40;;
21038;SDS011;10678;51.002;4.786;2023-04-24T07:06:04;19.00;;;10.25;;
21038;SDS011;10678;51.002;4.786;2023-04-24T07:08:30;21.40;;;10.50;;
21038;SDS011;10678;51.002;4.786;2023-04-24T07:10:57;19.30;;;10.02;;
21038;SDS011;10678;51.002;4.786;2023-04-24T07:13:23;18.95;;;10.10;;
21038;SDS011;10678;51.002;4.786;2023-04-24T07:15:48;19.88;;;10.55;;
21038;SDS011;10678;51.002;4.786;2023-04-24T07:18:19;17.33;;;11.30;;
21038;SDS011;10678;51.002;4.786;2023-04-24T07:20:45;21.13;;;10.52;;
21038;SDS011;10678;51.002;4.786;2023-04-24T07:23:10;19.95;;;10.65;;
21038;SDS011;10678;51.002;4.786;2023-04-24T07:25:36;22.85;;;10.75;;
21038;SDS011;10678;51.002;4.786;2023-04-24T07:28:03;20.92;;;10.93;;
21038;SDS011;10678;51.002;4.786;2023-04-24T07:30:29;23.70;;;10.68;;
21038;SDS011;10678;51.002;4.786;2023-04-24T07:32:57;15.07;;;9.32;;
21038;SDS011;10678;51.002;4.786;2023-04-24T07:35:23;19.70;;;10.32;;
21038;SDS011;10678;51.002;4.786;2023-04-24T07:37:51;18.85;;;9.43;;
21038;SDS011;10678;51.002;4.786;2023-04-24T07:40:17;20.00;;;9.38;;
21038;SDS011;10678;51.002;4.786;2023-04-24T07:42:43;25.73;;;10.77;;
21038;SDS011;10678;51.002;4.786;2023-04-24T07:45:09;18.65;;;8.88;;
21038;SDS011;10678;51.002;4.786;2023-04-24T07:47:35;25.13;;;9.30;;
21038;SDS011;10678;51.002;4.786;2023-04-24T07:50:02;20.80;;;7.95;;
21038;SDS011;10678;51.002;4.786;2023-04-24T07:52:28;14.57;;;7.97;;
21038;SDS011;10678;51.002;4.786;2023-04-24T07:54:54;18.20;;;10.80;;
21038;SDS011;10678;51.002;4.786;2023-04-24T07:57:23;15.20;;;9.50;;
21038;SDS011;10678;51.002;4.786;2023-04-24T07:59:50;18.35;;;7.35;;
21038;SDS011;10678;51.002;4.786;2023-04-24T08:02:15;15.88;;;7.88;;
21038;SDS011;10678;51.002;4.786;2023-04-24T08:04:41;14.35;;;8.98;;
21038;SDS011;10678;51.002;4.786;2023-04-24T08:07:07;34.45;;;20.02;;
21038;SDS011;10678;51.002;4.786;2023-04-24T08:09:33;26.50;;;20.27;;
21038;SDS011;10678;51.002;4.786;2023-04-24T08:11:59;16.52;;;6.97;;
21038;SDS011;10678;51.002;4.786;2023-04-24T08:14:24;18.40;;;5.68;;
21038;SDS011;10678;51.002;4.786;2023-04-24T08:16:50;14.02;;;6.00;;
21038;SDS011;10678;51.002;4.786;2023-04-24T08:19:19;12.27;;;4.88;;
21038;SDS011;10678;51.002;4.786;2023-04-24T08:21:44;10.65;;;4.45;;
21038;SDS011;10678;51.002;4.786;2023-04-24T08:24:10;11.98;;;4.15;;
21038;SDS011;10678;51.002;4.786;2023-04-24T08:26:35;18.05;;;5.40;;
21038;SDS011;10678;51.002;4.786;2023-04-24T08:29:01;10.63;;;3.92;;
21038;SDS011;10678;51.002;4.786;2023-04-24T08:31:27;17.98;;;5.03;;
21038;SDS011;10678;51.002;4.786;2023-04-24T08:33:52;13.05;;;4.63;;
21038;SDS011;10678;51.002;4.786;2023-04-24T08:36:18;15.98;;;4.90;;
21038;SDS011;10678;51.002;4.786;2023-04-24T08:38:44;19.70;;;5.05;;
21038;SDS011;10678;51.002;4.786;2023-04-24T08:41:11;17.50;;;5.20;;
21038;SDS011;10678;51.002;4.786;2023-04-24T08:43:39;16.35;;;5.18;;
21038;SDS011;10678;51.002;4.786;2023-04-24T08:46:05;18.95;;;5.75;;
21038;SDS011;10678;51.002;4.786;2023-04-24T08:48:31;15.00;;;5.55;;
21038;SDS011;10678;51.002;4.786;2023-04-24T08:50:58;14.70;;;6.65;;
21038;SDS011;10678;51.002;4.786;2023-04-24T08:53:24;16.75;;;6.80;;
21038;SDS011;10678;51.002;4.786;2023-04-24T08:55:51;20.88;;;6.55;;
21038;SDS011;10678;51.002;4.786;2023-04-24T08:58:19;22.75;;;7.45;;
21038;SDS011;10678;51.002;4.786;2023-04-24T09:00:44;23.20;;;7.05;;
21038;SDS011;10678;51.002;4.786;2023-04-24T09:03:15;21.17;;;8.27;;
21038;SDS011;10678;51.002;4.786;2023-04-24T09:05:46;19.70;;;7.30;;
21038;SDS011;10678;51.002;4.786;2023-04-24T09:08:12;17.00;;;6.55;;
21038;SDS011;10678;51.002;4.786;2023-04-24T09:10:39;16.60;;;7.22;;
21038;SDS011;10678;51.002;4.786;2023-04-24T09:13:05;18.27;;;8.30;;
21038;SDS011;10678;51.002;4.786;2023-04-24T09:15:34;18.10;;;7.85;;
21038;SDS011;10678;51.002;4.786;2023-04-24T09:18:00;19.50;;;7.28;;
21038;SDS011;10678;51.002;4.786;2023-04-24T09:20:26;18.40;;;6.72;;
21038;SDS011;10678;51.002;4.786;2023-04-24T09:22:53;15.05;;;6.13;;
21038;SDS011;10678;51.002;4.786;2023-04-24T09:25:20;16.35;;;7.03;;
21038;SDS011;10678;51.002;4.786;2023-04-24T09:27:46;14.40;;;5.72;;
21038;SDS011;10678;51.002;4.786;2023-04-24T09:30:12;16.48;;;5.68;;
21038;SDS011;10678;51.002;4.786;2023-04-24T09:32:39;12.13;;;4.60;;
21038;SDS011;10678;51.002;4.786;2023-04-24T09:35:06;16.92;;;4.90;;
21038;SDS011;10678;51.002;4.786;2023-04-24T09:37:36;13.80;;;4.65;;
21038;SDS011;10678;51.002;4.786;2023-04-24T09:40:07;17.55;;;4.93;;
21038;SDS011;10678;51.002;4.786;2023-04-24T09:42:33;17.30;;;6.25;;
21038;SDS011;10678;51.002;4.786;2023-04-24T09:44:59;15.98;;;6.18;;
21038;SDS011;10678;51.002;4.786;2023-04-24T09:47:24;17.55;;;5.97;;
21038;SDS011;10678;51.002;4.786;2023-04-24T09:49:50;15.00;;;5.63;;
21038;SDS011;10678;51.002;4.786;2023-04-24T09:52:22;14.27;;;6.00;;
21038;SDS011;10678;51.002;4.786;2023-04-24T09:54:53;11.15;;;4.60;;
21038;SDS011;10678;51.002;4.786;2023-04-24T09:57:19;14.25;;;5.15;;
21038;SDS011;10678;51.002;4.786;2023-04-24T09:59:45;17.55;;;6.72;;
21038;SDS011;10678;51.002;4.786;2023-04-24T10:02:17;15.75;;;5.80;;
21038;SDS011;10678;51.002;4.786;2023-04-24T10:04:53;14.25;;;5.63;;
21038;SDS011;10678;51.002;4.786;2023-04-24T10:07:20;17.33;;;5.60;;
21038;SDS011;10678;51.002;4.786;2023-04-24T10:09:46;11.18;;;4.65;;
21038;SDS011;10678;51.002;4.786;2023-04-24T10:12:12;10.15;;;3.83;;
21038;SDS011;10678;51.002;4.786;2023-04-24T10:14:39;13.02;;;3.90;;
21038;SDS011;10678;51.002;4.786;2023-04-24T10:17:06;7.80;;;3.42;;
21038;SDS011;10678;51.002;4.786;2023-04-24T10:19:31;13.20;;;4.00;;
21038;SDS011;10678;51.002;4.786;2023-04-24T10:21:59;9.70;;;3.22;;
21038;SDS011;10678;51.002;4.786;2023-04-24T10:24:25;15.07;;;3.17;;
21038;SDS011;10678;51.002;4.786;2023-04-24T10:26:51;9.02;;;2.80;;
21038;SDS011;10678;51.002;4.786;2023-04-24T10:29:18;8.88;;;3.30;;
21038;SDS011;10678;51.002;4.786;2023-04-24T10:31:44;13.80;;;4.45;;
21038;SDS011;10678;51.002;4.786;2023-04-24T10:34:14;11.23;;;4.40;;
21038;SDS011;10678;51.002;4.786;2023-04-24T10:36:48;10.02;;;4.05;;
21038;SDS011;10678;51.002;4.786;2023-04-24T10:39:16;8.85;;;3.53;;
21038;SDS011;10678;51.002;4.786;2023-04-24T10:41:44;13.50;;;5.55;;
21038;SDS011;10678;51.002;4.786;2023-04-24T10:44:12;12.55;;;5.72;;
21038;SDS011;10678;51.002;4.786;2023-04-24T10:46:42;11.30;;;3.95;;
21038;SDS011;10678;51.002;4.786;2023-04-24T10:49:09;8.30;;;3.53;;
21038;SDS011;10678;51.002;4.786;2023-04-24T10:54:27;9.15;;;4.43;;
21038;SDS011;10678;51.002;4.786;2023-04-24T10:57:25;11.77;;;4.97;;
21038;SDS011;10678;51.002;4.786;2023-04-24T10:59:51;11.13;;;3.90;;
21038;SDS011;10678;51.002;4.786;2023-04-24T11:02:36;9.80;;;3.67;;
21038;SDS011;10678;51.002;4.786;2023-04-24T11:05:03;8.30;;;3.10;;
21038;SDS011;10678;51.002;4.786;2023-04-24T11:07:29;8.57;;;3.28;;
21038;SDS011;10678;51.002;4.786;2023-04-24T11:10:27;8.20;;;3.08;;
21038;SDS011;10678;51.002;4.786;2023-04-24T11:12:53;13.25;;;4.38;;
21038;SDS011;10678;51.002;4.786;2023-04-24T11:15:18;12.98;;;3.97;;
21038;SDS011;10678;51.002;4.786;2023-04-24T11:17:44;13.13;;;3.70;;
21038;SDS011;10678;51.002;4.786;2023-04-24T11:20:11;13.40;;;4.05;;
21038;SDS011;10678;51.002;4.786;2023-04-24T11:22:41;6.45;;;2.95;;
21038;SDS011;10678;51.002;4.786;2023-04-24T11:25:07;8.80;;;2.50;;
21038;SDS011;10678;51.002;4.786;2023-04-24T11:27:43;9.45;;;2.90;;
21038;SDS011;10678;51.002;4.786;2023-04-24T11:30:11;8.57;;;2.50;;
21038;SDS011;10678;51.002;4.786;2023-04-24T11:32:37;10.30;;;2.78;;
21038;SDS011;10678;51.002;4.786;2023-04-24T11:35:15;9.50;;;2.80;;
21038;SDS011;10678;51.002;4.786;2023-04-24T11:37:42;8.50;;;2.70;;
21038;SDS011;10678;51.002;4.786;2023-04-24T11:40:14;10.73;;;3.25;;
21038;SDS011;10678;51.002;4.786;2023-04-24T11:42:41;10.60;;;2.72;;
21038;SDS011;10678;51.002;4.786;2023-04-24T11:45:09;6.68;;;2.80;;
21038;SDS011;10678;51.002;4.786;2023-04-24T11:47:37;9.13;;;2.55;;
21038;SDS011;10678;51.002;4.786;2023-04-24T11:50:04;13.82;;;3.78;;
21038;SDS011;10678;51.002;4.786;2023-04-24T11:52:31;10.63;;;2.92;;
21038;SDS011;10678;51.002;4.786;2023-04-24T11:54:59;9.00;;;3.20;;
21038;SDS011;10678;51.002;4.786;2023-04-24T11:57:25;8.30;;;3.22;;
21038;SDS011;10678;51.002;4.786;2023-04-24T11:59:58;12.23;;;3.53;;
21038;SDS011;10678;51.002;4.786;2023-04-24T12:02:25;10.65;;;3.38;;
21038;SDS011;10678;51.002;4.786;2023-04-24T12:04:54;9.63;;;3.63;;
21038;SDS011;10678;51.002;4.786;2023-04-24T12:07:21;11.88;;;3.88;;
21038;SDS011;10678;51.002;4.786;2023-04-24T12:09:49;8.32;;;3.90;;
21038;SDS011;10678;51.002;4.786;2023-04-24T12:12:20;7.93;;;3.53;;
21038;SDS011;10678;51.002;4.786;2023-04-24T12:14:52;13.65;;;3.70;;
21038;SDS011;10678;51.002;4.786;2023-04-24T12:17:23;9.43;;;3.45;;
21038;SDS011;10678;51.002;4.786;2023-04-24T12:19:57;12.63;;;4.03;;
21038;SDS011;10678;51.002;4.786;2023-04-24T12:22:52;10.88;;;3.33;;
21038;SDS011;10678;51.002;4.786;2023-04-24T12:25:20;9.75;;;3.50;;
21038;SDS011;10678;51.002;4.786;2023-04-24T12:27:52;13.07;;;3.75;;
21038;SDS011;10678;51.002;4.786;2023-04-24T12:30:18;9.82;;;3.15;;
21038;SDS011;10678;51.002;4.786;2023-04-24T12:32:45;7.10;;;3.42;;
21038;SDS011;10678;51.002;4.786;2023-04-24T12:35:12;9.63;;;3.28;;
21038;SDS011;10678;51.002;4.786;2023-04-24T12:37:41;12.40;;;4.40;;
21038;SDS011;10678;51.002;4.786;2023-04-24T12:40:08;9.30;;;3.90;;
21038;SDS011;10678;51.002;4.786;2023-04-24T12:42:36;9.60;;;3.25;;
21038;SDS011;10678;51.002;4.786;2023-04-24T12:45:11;12.77;;;3.97;;
21038;SDS011;10678;51.002;4.786;2023-04-24T12:47:37;12.25;;;4.10;;
21038;SDS011;10678;51.002;4.786;2023-04-24T12:50:04;10.57;;;3.90;;
21038;SDS011;10678;51.002;4.786;2023-04-24T12:52:30;11.45;;;3.83;;
21038;SDS011;10678;51.002;4.786;2023-04-24T12:54:57;11.00;;;3.80;;
21038;SDS011;10678;51.002;4.786;2023-04-24T12:57:23;8.68;;;2.90;;
21038;SDS011;10678;51.002;4.786;2023-04-24T12:59:50;11.27;;;3.38;;
21038;SDS011;10678;51.002;4.786;2023-04-24T13:02:16;8.75;;;3.10;;
21038;SDS011;10678;51.002;4.786;2023-04-24T13:04:45;9.20;;;2.90;;
21038;SDS011;10678;51.002;4.786;2023-04-24T13:07:12;8.30;;;3.28;;
21038;SDS011;10678;51.002;4.786;2023-04-24T13:09:39;9.65;;;2.95;;
21038;SDS011;10678;51.002;4.786;2023-04-24T13:12:04;10.98;;;3.25;;
21038;SDS011;10678;51.002;4.786;2023-04-24T13:14:31;6.75;;;2.65;;
21038;SDS011;10678;51.002;4.786;2023-04-24T13:16:57;7.22;;;2.90;;
21038;SDS011;10678;51.002;4.786;2023-04-24T13:19:26;7.72;;;2.78;;
21038;SDS011;10678;51.002;4.786;2023-04-24T13:21:52;7.07;;;2.58;;
21038;SDS011;10678;51.002;4.786;2023-04-24T13:24:20;7.28;;;2.33;;
21038;SDS011;10678;51.002;4.786;2023-04-24T13:26:45;10.10;;;2.88;;
21038;SDS011;10678;51.002;4.786;2023-04-24T13:29:11;10.70;;;2.45;;
21038;SDS011;10678;51.002;4.786;2023-04-24T13:31:37;8.20;;;2.35;;
21038;SDS011;10678;51.002;4.786;2023-04-24T13:34:02;6.28;;;2.10;;
21038;SDS011;10678;51.002;4.786;2023-04-24T13:36:28;6.93;;;2.35;;
21038;SDS011;10678;51.002;4.786;2023-04-24T13:38:55;7.20;;;2.65;;
21038;SDS011;10678;51.002;4.786;2023-04-24T13:41:20;10.20;;;3.38;;
21038;SDS011;10678;51.002;4.786;2023-04-24T13:43:46;8.10;;;2.63;;
21038;SDS011;10678;51.002;4.786;2023-04-24T13:46:12;6.05;;;2.80;;
21038;SDS011;10678;51.002;4.786;2023-04-24T13:48:38;7.90;;;3.00;;
21038;SDS011;10678;51.002;4.786;2023-04-24T13:51:03;10.73;;;2.60;;
21038;SDS011;10678;51.002;4.786;2023-04-24T13:53:29;11.45;;;2.45;;
21038;SDS011;10678;51.002;4.786;2023-04-24T13:55:54;8.00;;;2.80;;
21038;SDS011;10678;51.002;4.786;2023-04-24T13:58:20;6.50;;;2.67;;
21038;SDS011;10678;51.002;4.786;2023-04-24T14:00:46;5.90;;;2.17;;
21038;SDS011;10678;51.002;4.786;2023-04-24T14:03:12;7.13;;;1.95;;
21038;SDS011;10678;51.002;4.786;2023-04-24T14:05:37;4.80;;;1.80;;
21038;SDS011;10678;51.002;4.786;2023-04-24T14:08:03;9.32;;;1.98;;
21038;SDS011;10678;51.002;4.786;2023-04-24T14:10:29;6.63;;;2.35;;
21038;SDS011;10678;51.002;4.786;2023-04-24T14:12:55;8.65;;;2.03;;
21038;SDS011;10678;51.002;4.786;2023-04-24T14:15:20;6.60;;;1.77;;
21038;SDS011;10678;51.002;4.786;2023-04-24T14:17:47;6.00;;;2.10;;
21038;SDS011;10678;51.002;4.786;2023-04-24T14:20:13;8.27;;;2.20;;
21038;SDS011;10678;51.002;4.786;2023-04-24T14:22:39;11.23;;;2.65;;
21038;SDS011;10678;51.002;4.786;2023-04-24T14:25:05;6.93;;;2.40;;
21038;SDS011;10678;51.002;4.786;2023-04-24T14:27:32;5.55;;;2.20;;
21038;SDS011;10678;51.002;4.786;2023-04-24T14:29:59;6.15;;;2.20;;
21038;SDS011;10678;51.002;4.786;2023-04-24T14:32:25;7.35;;;2.60;;
21038;SDS011;10678;51.002;4.786;2023-04-24T14:34:50;6.88;;;2.22;;
21038;SDS011;10678;51.002;4.786;2023-04-24T14:37:16;7.45;;;2.63;;